Time;durP1;ratioP1;P1;durP2;ratioP2;P2;SDS_P1;SDS_P2;PMS_P1;PMS_P2;Temp;Humidity;BMP_temperature;BMP_pressure;BME280_temperature;BME280_humidity;BME280_pressure;Samples;Min_cycle;Max_cycle;Signal;HPM_P1;HPM_P2
2020/12/03 04:05:05;;;;;;;61.90;38.00;;;1.40;99.90;;;;;;5996720;23;20413;31
2020/12/03 04:07:32;;;;;;;50.23;32.47;;;1.40;99.90;;;;;;4910261;29;20481;-76
2020/12/03 04:09:58;;;;;;;56.93;36.07;;;1.50;99.90;;;;;;4915872;29;20463;-75
2020/12/03 04:12:24;;;;;;;52.27;35.40;;;1.50;99.90;;;;;;4914238;29;20482;-76
2020/12/03 04:14:50;;;;;;;46.60;35.30;;;1.50;99.90;;;;;;4905996;29;20463;-76
2020/12/03 04:17:17;;;;;;;45.00;34.37;;;1.60;99.90;;;;;;4897070;29;20494;-77
2020/12/03 04:19:43;;;;;;;51.80;35.13;;;1.70;99.90;;;;;;4896872;29;20695;-76
2020/12/03 04:22:09;;;;;;;57.87;36.00;;;1.80;99.90;;;;;;4896966;29;20463;-77
2020/12/03 04:24:36;;;;;;;50.03;34.57;;;1.90;99.90;;;;;;4897023;29;20820;-77
2020/12/03 04:27:02;;;;;;;50.03;35.00;;;2.00;99.90;;;;;;4896573;29;20447;-76
2020/12/03 04:29:28;;;;;;;49.10;36.10;;;2.00;99.90;;;;;;4896869;29;20447;-78
2020/12/03 04:31:54;;;;;;;46.50;35.87;;;2.00;99.90;;;;;;4896748;29;20503;-76
2020/12/03 04:34:21;;;;;;;45.07;34.33;;;2.10;99.90;;;;;;4896730;29;20561;-76
2020/12/03 04:36:47;;;;;;;52.13;33.93;;;2.20;99.90;;;;;;4896544;29;20567;-77
2020/12/03 04:39:13;;;;;;;52.43;34.37;;;2.20;99.90;;;;;;4896504;29;20455;-77
2020/12/03 04:41:40;;;;;;;56.80;39.60;;;2.10;99.90;;;;;;4896302;29;20503;-77
2020/12/03 04:44:14;;;;;;;57.00;36.53;;;2.20;99.90;;;;;;4896846;29;20507;-76
2020/12/03 04:46:45;;;;;;;57.80;36.73;;;2.10;99.90;;;;;;4896722;29;20465;-77
2020/12/03 04:49:24;;;;;;;57.70;38.30;;;2.20;99.90;;;;;;4896338;29;20451;-77
2020/12/03 04:52:25;;;;;;;45.63;34.80;;;2.10;99.90;;;;;;4896612;29;20439;-76
2020/12/03 04:55:04;;;;;;;58.67;35.37;;;2.00;99.90;;;;;;4873287;29;20456;-77
2020/12/03 04:57:36;;;;;;;50.47;37.00;;;2.00;99.90;;;;;;4896257;29;20854;-77
2020/12/03 05:00:07;;;;;;;46.60;34.63;;;2.10;99.90;;;;;;4896186;29;20458;-78
2020/12/03 05:03:09;;;;;;;43.07;34.53;;;2.10;99.90;;;;;;4896601;29;20451;-75
2020/12/03 05:05:40;;;;;;;45.93;32.33;;;1.90;99.90;;;;;;4895831;29;20856;-76
2020/12/03 05:08:09;;;;;;;46.40;34.03;;;1.90;99.90;;;;;;4896343;29;20443;-76
2020/12/03 05:10:42;;;;;;;48.43;33.77;;;1.90;99.90;;;;;;4896155;29;20452;-76
2020/12/03 05:13:21;;;;;;;48.93;34.10;;;2.00;99.90;;;;;;4895948;29;20462;-76
2020/12/03 05:15:50;;;;;;;53.97;35.00;;;2.00;99.90;;;;;;4896307;29;20450;-76
2020/12/03 05:18:41;;;;;;;48.80;36.07;;;1.90;99.90;;;;;;4895843;29;21044;-76
2020/12/03 05:21:13;;;;;;;47.20;35.13;;;1.90;99.90;;;;;;4895954;29;20563;-76
2020/12/03 05:23:39;;;;;;;49.13;35.33;;;2.00;99.90;;;;;;4895842;29;20582;-75
2020/12/03 05:26:16;;;;;;;48.30;33.90;;;2.00;99.90;;;;;;4895972;29;20448;-75
2020/12/03 05:28:49;;;;;;;50.50;36.37;;;2.00;99.90;;;;;;4895719;29;20985;-76
2020/12/03 05:31:30;;;;;;;50.87;34.27;;;1.90;99.90;;;;;;4894646;29;20960;-76
2020/12/03 05:34:08;;;;;;;48.40;34.33;;;1.90;99.90;;;;;;4895583;29;20460;-74
2020/12/03 05:36:38;;;;;;;50.97;35.20;;;1.90;99.90;;;;;;4895662;29;20577;-76
2020/12/03 05:39:07;;;;;;;49.37;34.93;;;1.90;99.90;;;;;;4895717;29;20451;-76
2020/12/03 05:41:39;;;;;;;49.87;33.90;;;1.90;99.90;;;;;;4895680;29;20946;-76
2020/12/03 05:44:24;;;;;;;47.23;32.23;;;1.90;99.90;;;;;;4895627;29;20498;-77
2020/12/03 05:46:51;;;;;;;46.43;32.20;;;2.00;99.90;;;;;;4895532;29;20941;-77
2020/12/03 05:49:21;;;;;;;46.03;31.90;;;2.00;99.90;;;;;;4895950;29;20447;-78
2020/12/03 05:52:03;;;;;;;44.53;32.00;;;2.00;99.90;;;;;;4895504;29;20447;-78
2020/12/03 05:54:29;;;;;;;42.80;32.43;;;2.10;99.90;;;;;;4895468;29;20483;-79
2020/12/03 05:56:55;;;;;;;39.93;28.87;;;2.00;99.90;;;;;;4895425;29;20514;-76
2020/12/03 05:59:25;;;;;;;40.30;30.03;;;2.10;99.90;;;;;;4895875;29;20658;-76
2020/12/03 06:02:01;;;;;;;41.40;28.83;;;2.10;99.90;;;;;;4895678;29;20739;-75
2020/12/03 06:04:34;;;;;;;43.00;31.93;;;2.10;99.90;;;;;;4895003;29;20597;-76
2020/12/03 06:07:31;;;;;;;41.30;30.43;;;2.20;99.90;;;;;;4895300;29;20498;-75
2020/12/03 06:10:11;;;;;;;46.03;32.53;;;2.20;99.90;;;;;;4895364;29;20723;-75
2020/12/03 06:13:02;;;;;;;45.60;32.30;;;2.20;99.90;;;;;;4895414;29;20473;-75
2020/12/03 06:15:37;;;;;;;46.87;29.40;;;2.20;99.90;;;;;;4895488;29;20470;-75
2020/12/03 06:18:32;;;;;;;38.43;29.10;;;2.30;99.90;;;;;;4895216;29;20491;-74
2020/12/03 06:21:13;;;;;;;31.50;25.00;;;2.30;99.90;;;;;;4895618;29;20633;-75
2020/12/03 06:23:49;;;;;;;38.23;27.70;;;2.40;99.90;;;;;;4895444;29;20450;-75
2020/12/03 06:26:32;;;;;;;40.80;29.30;;;2.40;99.90;;;;;;4895331;29;20470;-75
2020/12/03 06:29:27;;;;;;;43.20;33.57;;;2.40;99.90;;;;;;4895243;29;20823;-75
2020/12/03 06:32:13;;;;;;;36.10;29.53;;;2.40;99.90;;;;;;4895531;29;20443;-75
2020/12/03 06:34:44;;;;;;;35.73;25.70;;;2.40;99.90;;;;;;4895068;29;20455;-75
2020/12/03 06:37:19;;;;;;;28.70;24.93;;;2.60;99.90;;;;;;4895565;29;20577;-76
2020/12/03 06:39:49;;;;;;;31.47;26.30;;;2.70;99.90;;;;;;4895191;29;20442;-76
2020/12/03 06:42:27;;;;;;;38.53;28.80;;;2.80;99.90;;;;;;4897538;29;20443;-76
2020/12/03 06:44:58;;;;;;;36.40;26.67;;;2.70;99.90;;;;;;4899300;29;20816;-76
2020/12/03 06:47:56;;;;;;;35.80;28.20;;;2.60;99.90;;;;;;4898800;29;20471;-76
2020/12/03 06:50:45;;;;;;;30.50;26.90;;;2.60;99.90;;;;;;4898817;29;20447;-76
2020/12/03 06:53:31;;;;;;;36.30;26.60;;;2.70;99.90;;;;;;4896707;29;20566;-76
2020/12/03 06:56:30;;;;;;;35.30;28.60;;;2.80;99.90;;;;;;4898852;29;20915;-76
2020/12/03 06:59:32;;;;;;;37.30;28.03;;;2.80;99.90;;;;;;4897926;29;20447;-76
2020/12/03 07:02:47;;;;;;;39.33;28.27;;;2.80;99.90;;;;;;4898854;29;20439;-75
2020/12/03 07:05:42;;;;;;;33.07;28.27;;;2.70;99.90;;;;;;4894986;29;20860;-76
2020/12/03 07:08:39;;;;;;;33.37;27.30;;;2.80;99.90;;;;;;4898600;29;20435;-76
2020/12/03 07:11:25;;;;;;;42.13;24.67;;;2.80;99.90;;;;;;4898528;29;20451;-76
2020/12/03 07:14:40;;;;;;;42.03;31.60;;;2.90;99.90;;;;;;4898337;29;20450;-76
2020/12/03 07:17:33;;;;;;;39.30;27.60;;;2.90;99.90;;;;;;4898464;29;20863;-76
2020/12/03 07:20:27;;;;;;;33.63;28.60;;;2.70;99.90;;;;;;4898134;29;20463;-78
2020/12/03 07:22:58;;;;;;;35.13;27.57;;;2.70;99.90;;;;;;4907892;29;20447;-86
2020/12/03 07:25:24;;;;;;;37.40;27.60;;;2.60;99.90;;;;;;4905967;29;20468;-87
2020/12/03 07:28:15;;;;;;;38.33;29.90;;;2.60;99.90;;;;;;4903248;29;20443;-84
2020/12/03 07:30:51;;;;;;;35.43;28.07;;;2.60;99.90;;;;;;4898636;29;20432;-79
2020/12/03 07:33:28;;;;;;;35.80;27.77;;;2.60;99.90;;;;;;4897929;29;20446;-76
2020/12/03 07:36:16;;;;;;;37.07;30.50;;;2.50;99.90;;;;;;4897378;29;20460;-78
2020/12/03 07:38:48;;;;;;;50.33;32.50;;;2.70;99.90;;;;;;4897327;29;21103;-78
2020/12/03 07:41:16;;;;;;;50.43;30.23;;;2.70;99.90;;;;;;4897810;29;20888;-78
2020/12/03 07:43:43;;;;;;;42.10;32.53;;;2.60;99.90;;;;;;4897926;29;20499;-79
2020/12/03 07:46:39;;;;;;;40.80;29.90;;;2.60;99.90;;;;;;4897500;29;20455;-78
2020/12/03 07:49:06;;;;;;;43.60;32.20;;;2.60;99.90;;;;;;4897757;29;20471;-79
2020/12/03 07:51:33;;;;;;;42.87;32.30;;;2.70;99.90;;;;;;4897524;29;20443;-79
2020/12/03 07:54:23;;;;;;;41.20;27.63;;;2.70;99.90;;;;;;4897876;29;21018;-79
2020/12/03 07:56:50;;;;;;;44.67;30.80;;;2.60;99.90;;;;;;4922226;29;20446;-79
2020/12/03 07:59:37;;;;;;;35.20;28.70;;;2.60;99.90;;;;;;4926981;29;20783;-79
2020/12/03 08:02:24;;;;;;;37.43;28.33;;;2.70;99.90;;;;;;4935227;29;20457;-78
2020/12/03 08:04:50;;;;;;;33.07;27.93;;;2.70;99.90;;;;;;4919273;29;20465;-78
2020/12/03 08:07:38;;;;;;;33.87;26.23;;;2.70;99.90;;;;;;4918441;29;20544;-79
2020/12/03 08:10:33;;;;;;;30.67;27.33;;;2.80;99.90;;;;;;4897076;29;20443;-78
2020/12/03 08:13:14;;;;;;;42.17;32.20;;;2.70;99.90;;;;;;4918868;29;20505;-79
2020/12/03 08:15:41;;;;;;;42.43;32.70;;;2.70;99.90;;;;;;4915787;29;20469;-80
2020/12/03 08:18:44;;;;;;;48.17;32.30;;;2.80;99.90;;;;;;4916172;29;20530;-80
2020/12/03 08:21:13;;;;;;;44.30;30.90;;;2.80;99.90;;;;;;4915660;29;20442;-80
2020/12/03 08:23:40;;;;;;;40.27;31.27;;;2.80;99.90;;;;;;4915516;29;20477;-80
2020/12/03 08:26:07;;;;;;;40.50;30.47;;;2.90;99.90;;;;;;4915751;29;20500;-80
2020/12/03 08:28:33;;;;;;;32.47;27.40;;;3.00;99.90;;;;;;4923766;29;20466;-80
2020/12/03 08:31:00;;;;;;;28.30;24.27;;;3.00;99.90;;;;;;4920770;29;20466;-80
2020/12/03 08:33:29;;;;;;;33.50;24.30;;;3.00;99.90;;;;;;4916141;29;20478;-80
2020/12/03 08:35:58;;;;;;;23.90;21.33;;;3.20;99.90;;;;;;4925997;29;20454;-81
2020/12/03 08:38:28;;;;;;;23.70;21.30;;;3.30;99.90;;;;;;4922169;29;20482;-80
2020/12/03 08:40:58;;;;;;;25.27;22.57;;;3.40;99.90;;;;;;4915227;29;20944;-81
2020/12/03 08:43:24;;;;;;;24.80;22.27;;;3.40;99.90;;;;;;4933242;29;20537;-82
2020/12/03 08:45:57;;;;;;;23.97;21.50;;;3.50;99.90;;;;;;4932837;29;20539;-83
2020/12/03 08:48:28;;;;;;;27.43;20.73;;;3.50;99.90;;;;;;4915677;29;20521;-81
2020/12/03 08:50:56;;;;;;;25.80;23.10;;;3.50;99.90;;;;;;4924875;29;20478;-80
2020/12/03 08:53:22;;;;;;;30.03;23.60;;;3.40;99.90;;;;;;4934187;29;20450;-80
2020/12/03 08:55:48;;;;;;;27.43;24.63;;;3.30;99.90;;;;;;4934117;29;20556;-80
2020/12/03 08:58:20;;;;;;;27.67;23.80;;;3.30;99.90;;;;;;4933902;29;21058;-80
2020/12/03 09:00:48;;;;;;;35.77;25.70;;;3.20;99.90;;;;;;4934107;29;20454;-80
2020/12/03 09:03:15;;;;;;;22.57;20.30;;;3.30;99.90;;;;;;4933900;29;20445;-81
2020/12/03 09:05:45;;;;;;;29.33;26.23;;;3.30;99.90;;;;;;4933836;29;20481;-81
2020/12/03 09:08:18;;;;;;;31.70;24.70;;;3.30;99.90;;;;;;4922846;29;20447;-81
2020/12/03 09:10:45;;;;;;;28.93;25.30;;;3.40;99.90;;;;;;4914896;29;20458;-81
2020/12/03 09:13:16;;;;;;;37.57;29.90;;;3.40;99.90;;;;;;4914832;29;20454;-81
2020/12/03 09:15:43;;;;;;;38.37;27.70;;;3.60;99.90;;;;;;4914811;29;20451;-81
2020/12/03 09:18:09;;;;;;;29.40;26.07;;;3.70;99.90;;;;;;4914772;29;20494;-81
2020/12/03 09:20:41;;;;;;;29.17;26.20;;;3.70;99.90;;;;;;4915058;29;20481;-81
2020/12/03 09:23:13;;;;;;;25.73;22.67;;;3.70;99.90;;;;;;4914867;29;20941;-81
2020/12/03 09:25:40;;;;;;;28.23;25.17;;;3.80;99.90;;;;;;4914972;29;20458;-81
2020/12/03 09:28:06;;;;;;;28.57;25.77;;;3.80;99.90;;;;;;4914880;29;20454;-81
2020/12/03 09:30:33;;;;;;;29.17;26.10;;;3.70;99.90;;;;;;4916788;29;20462;-81
2020/12/03 09:33:01;;;;;;;30.00;26.53;;;3.60;99.90;;;;;;4914846;29;20447;-81
2020/12/03 09:35:29;;;;;;;27.43;24.20;;;3.60;99.90;;;;;;4899021;29;20467;-84
2020/12/03 09:37:58;;;;;;;27.20;24.33;;;3.60;99.90;;;;;;4895955;29;20498;-81
2020/12/03 09:40:26;;;;;;;27.30;23.40;;;3.60;99.90;;;;;;4895814;29;20451;-83
2020/12/03 09:42:53;;;;;;;24.70;22.10;;;3.60;99.90;;;;;;4895964;29;20454;-83
2020/12/03 09:45:23;;;;;;;24.77;22.07;;;3.70;99.90;;;;;;4896087;29;20902;-83
2020/12/03 09:47:50;;;;;;;24.80;22.43;;;3.70;99.90;;;;;;4896007;29;20447;-83
2020/12/03 09:50:20;;;;;;;22.27;20.03;;;3.60;99.90;;;;;;4895763;29;20479;-82
2020/12/03 09:52:47;;;;;;;29.20;22.83;;;3.60;99.90;;;;;;4895751;29;20447;-82
2020/12/03 09:55:15;;;;;;;25.43;22.20;;;3.70;99.90;;;;;;4895822;29;20447;-81
2020/12/03 09:57:51;;;;;;;21.90;20.00;;;3.90;99.90;;;;;;4895833;29;20590;-82
2020/12/03 10:00:22;;;;;;;23.73;21.33;;;3.80;99.90;;;;;;4895966;29;20459;-81
2020/12/03 10:03:44;;;;;;;20.43;18.40;;;3.80;99.90;;;;;;4896022;29;20452;-82
2020/12/03 10:06:22;;;;;;;22.70;19.90;;;4.00;99.90;;;;;;4894314;29;20488;-82
2020/12/03 10:09:10;;;;;;;22.33;20.10;;;4.00;99.90;;;;;;4914986;29;20469;-82
2020/12/03 10:12:25;;;;;;;22.07;19.97;;;3.90;99.90;;;;;;4934173;29;20446;-84
2020/12/03 10:15:27;;;;;;;24.03;21.23;;;3.90;99.90;;;;;;4907798;29;20447;-81
2020/12/03 10:18:09;;;;;;;27.53;20.43;;;3.80;99.90;;;;;;4906568;29;20486;-83
2020/12/03 10:20:37;;;;;;;23.27;20.87;;;3.80;99.90;;;;;;4918215;29;21043;-81
2020/12/03 10:23:26;;;;;;;21.10;18.90;;;3.80;99.90;;;;;;4920119;29;20474;-82
2020/12/03 10:25:59;;;;;;;23.70;21.30;;;3.80;99.90;;;;;;4918141;29;20722;-81
2020/12/03 10:28:35;;;;;;;22.17;20.17;;;3.80;99.90;;;;;;4918500;29;21015;-82
2020/12/03 10:31:02;;;;;;;24.23;22.03;;;3.80;99.90;;;;;;4917947;29;20442;-76
2020/12/03 10:33:35;;;;;;;22.40;20.10;;;3.80;99.90;;;;;;4917699;29;20454;-81
2020/12/03 10:36:08;;;;;;;21.37;19.37;;;3.90;99.90;;;;;;4903988;29;20455;-82
2020/12/03 10:38:42;;;;;;;22.07;20.00;;;3.90;99.90;;;;;;4899678;29;20487;-81
2020/12/03 10:41:09;;;;;;;24.83;20.20;;;4.00;99.90;;;;;;4898677;29;20474;-81
2020/12/03 10:43:37;;;;;;;23.23;20.83;;;4.10;99.90;;;;;;4898766;29;20454;-82
2020/12/03 10:46:10;;;;;;;23.10;20.77;;;4.00;99.90;;;;;;4898908;29;20455;-83
2020/12/03 10:48:39;;;;;;;21.17;19.30;;;4.10;99.90;;;;;;4898584;29;20452;-83
2020/12/03 10:51:07;;;;;;;22.53;20.30;;;4.40;99.90;;;;;;4898728;29;20479;-82
2020/12/03 10:53:34;;;;;;;23.00;20.90;;;4.70;99.90;;;;;;4898512;29;20470;-82
2020/12/03 10:56:02;;;;;;;21.83;19.73;;;4.80;99.90;;;;;;4898464;29;21064;-82
2020/12/03 10:58:34;;;;;;;19.93;18.40;;;4.70;99.90;;;;;;4898210;29;20494;-82
2020/12/03 11:01:06;;;;;;;19.80;18.00;;;4.70;99.90;;;;;;4898134;29;20957;-83
2020/12/03 11:03:34;;;;;;;20.20;18.40;;;4.90;99.90;;;;;;4898183;29;20830;-84
2020/12/03 11:06:01;;;;;;;21.77;19.63;;;5.00;99.90;;;;;;4898234;29;20482;-83
2020/12/03 11:08:34;;;;;;;21.00;19.03;;;4.80;99.90;;;;;;4897948;29;20696;-84
2020/12/03 11:11:01;;;;;;;19.03;17.50;;;4.90;99.90;;;;;;4898199;29;20511;-82
2020/12/03 11:13:27;;;;;;;20.63;18.33;;;4.80;99.90;;;;;;4898124;29;20787;-82
2020/12/03 11:15:56;;;;;;;19.47;17.43;;;4.80;99.90;;;;;;4898180;29;20454;-83
2020/12/03 11:18:23;;;;;;;19.70;18.10;;;4.80;99.90;;;;;;4898262;29;20922;-82
2020/12/03 11:20:58;;;;;;;18.70;17.20;;;4.70;99.90;;;;;;4898187;29;20443;-82
2020/12/03 11:23:29;;;;;;;19.97;18.17;;;4.80;99.90;;;;;;4898061;29;20446;-83
2020/12/03 11:26:03;;;;;;;19.70;18.13;;;4.90;99.90;;;;;;4897806;29;20479;-83
2020/12/03 11:28:33;;;;;;;18.00;16.50;;;5.00;99.90;;;;;;4896188;29;21000;-82
2020/12/03 11:31:04;;;;;;;17.03;15.73;;;5.10;99.90;;;;;;4897668;29;20455;-82
2020/12/03 11:33:32;;;;;;;18.17;16.47;;;5.10;99.90;;;;;;4897943;29;20447;-82
2020/12/03 11:36:06;;;;;;;15.23;13.80;;;5.20;99.90;;;;;;4897744;29;20482;-83
2020/12/03 11:38:33;;;;;;;17.10;15.70;;;5.10;99.90;;;;;;4897950;29;20498;-82
2020/12/03 11:41:03;;;;;;;16.60;15.20;;;4.90;99.90;;;;;;4898092;29;20454;-81
2020/12/03 11:49:04;;;;;;;16.80;15.50;;;5.00;99.90;;;;;;4887456;29;20486;-83
2020/12/03 11:51:32;;;;;;;15.80;14.50;;;4.90;99.90;;;;;;4897826;29;20447;-83
2020/12/03 11:54:01;;;;;;;16.60;15.30;;;5.10;99.90;;;;;;4896492;29;20456;-82
2020/12/03 11:56:28;;;;;;;15.00;14.00;;;5.20;99.90;;;;;;4897451;29;20494;-79
2020/12/03 11:59:16;;;;;;;15.87;14.67;;;5.10;99.90;;;;;;4897407;29;20565;-83
2020/12/03 12:01:51;;;;;;;16.77;15.40;;;5.10;99.90;;;;;;4897240;29;20455;-79
2020/12/03 12:04:19;;;;;;;15.57;14.43;;;5.00;99.90;;;;;;4897842;29;20509;-82
2020/12/03 12:06:59;;;;;;;15.87;14.67;;;5.00;99.90;;;;;;4897024;29;20844;-82
2020/12/03 12:09:32;;;;;;;15.10;14.00;;;5.10;99.90;;;;;;4899238;29;20451;-83
2020/12/03 12:11:58;;;;;;;15.50;14.30;;;5.20;99.90;;;;;;4898142;29;20444;-82
2020/12/03 12:14:24;;;;;;;15.13;13.93;;;5.20;99.90;;;;;;4897093;29;20953;-83
2020/12/03 12:16:52;;;;;;;17.77;14.07;;;5.00;99.90;;;;;;4897348;29;20447;-84
2020/12/03 12:19:18;;;;;;;14.50;13.43;;;5.10;99.90;;;;;;4897662;29;20483;-84
2020/12/03 12:21:46;;;;;;;13.80;12.70;;;5.10;99.90;;;;;;4897271;29;20459;-83
2020/12/03 12:24:12;;;;;;;14.10;12.80;;;5.00;99.90;;;;;;4897147;29;20749;-86
2020/12/03 12:26:39;;;;;;;15.90;14.70;;;4.90;99.90;;;;;;4897220;29;20452;-84
2020/12/03 12:29:05;;;;;;;16.07;14.80;;;5.10;99.90;;;;;;4897336;29;20448;-83
2020/12/03 12:31:32;;;;;;;15.50;14.40;;;5.20;99.90;;;;;;4897040;29;20464;-84
2020/12/03 12:33:58;;;;;;;14.67;13.47;;;5.00;99.90;;;;;;4896914;29;20459;-84
2020/12/03 12:36:24;;;;;;;14.13;12.97;;;5.10;99.90;;;;;;4897098;29;20456;-84
2020/12/03 12:38:51;;;;;;;15.73;14.47;;;5.00;99.90;;;;;;4896520;29;20494;-83
2020/12/03 12:41:18;;;;;;;15.50;14.40;;;4.90;99.90;;;;;;4896898;29;20874;-84
2020/12/03 12:43:45;;;;;;;15.60;14.40;;;4.90;99.90;;;;;;4896755;29;21173;-84
2020/12/03 12:46:11;;;;;;;17.83;13.13;;;5.00;99.90;;;;;;4896728;29;20455;-85
2020/12/03 12:48:37;;;;;;;14.60;13.33;;;5.20;99.90;;;;;;4896704;29;20440;-84
2020/12/03 12:51:03;;;;;;;15.17;13.83;;;5.20;99.90;;;;;;4896610;29;20930;-85
2020/12/03 12:53:29;;;;;;;15.90;14.90;;;5.30;99.90;;;;;;4896565;29;20459;-84
2020/12/03 12:55:55;;;;;;;16.97;15.73;;;5.20;99.90;;;;;;4896453;29;20451;-85
2020/12/03 12:58:21;;;;;;;13.37;12.17;;;5.20;99.90;;;;;;4896782;29;21009;-84
2020/12/03 13:00:48;;;;;;;15.03;13.83;;;5.10;99.90;;;;;;4896386;29;20478;-83
2020/12/03 13:03:15;;;;;;;14.63;13.47;;;5.20;99.90;;;;;;4896344;29;20454;-84
2020/12/03 13:05:41;;;;;;;14.80;13.60;;;5.20;99.90;;;;;;4896144;29;20498;-85
2020/12/03 13:08:07;;;;;;;15.87;14.67;;;5.20;99.90;;;;;;4896358;29;20604;-83
2020/12/03 13:10:34;;;;;;;15.00;13.67;;;5.20;99.90;;;;;;4896169;29;20447;-83
2020/12/03 13:13:00;;;;;;;13.63;12.50;;;5.30;99.90;;;;;;4896400;29;20943;-83
2020/12/03 13:15:26;;;;;;;13.83;12.73;;;5.10;99.90;;;;;;4896308;29;20444;-83
2020/12/03 13:17:53;;;;;;;14.63;13.63;;;5.10;99.90;;;;;;4896127;29;20487;-84
2020/12/03 13:20:20;;;;;;;15.43;14.13;;;5.10;99.90;;;;;;4896320;29;20860;-83
2020/12/03 13:22:46;;;;;;;15.00;13.90;;;5.10;99.90;;;;;;4896663;29;20967;-83
2020/12/03 13:25:12;;;;;;;14.70;13.70;;;5.20;99.90;;;;;;4896855;29;20874;-84
2020/12/03 13:27:38;;;;;;;15.03;13.57;;;5.20;99.90;;;;;;4896468;29;20458;-85
2020/12/03 13:30:04;;;;;;;15.07;13.70;;;5.10;99.90;;;;;;4896405;29;20451;-83
2020/12/03 13:32:31;;;;;;;16.43;14.80;;;5.20;99.90;;;;;;4895792;29;20455;-84
2020/12/03 13:34:58;;;;;;;15.00;14.00;;;5.20;99.90;;;;;;4896184;29;20459;-85
2020/12/03 13:37:24;;;;;;;13.80;12.90;;;5.20;99.90;;;;;;4895756;29;20451;-83
2020/12/03 13:39:50;;;;;;;13.13;12.23;;;5.20;99.90;;;;;;4895719;29;20467;-84
2020/12/03 13:42:16;;;;;;;15.27;13.87;;;5.10;99.90;;;;;;4895730;29;20455;-84
2020/12/03 13:44:42;;;;;;;13.60;12.57;;;5.20;99.90;;;;;;4896301;29;20522;-85
2020/12/03 13:47:09;;;;;;;18.00;16.47;;;5.00;99.90;;;;;;4896990;29;20451;-85
2020/12/03 13:49:35;;;;;;;14.00;13.07;;;5.00;99.90;;;;;;4896441;29;20448;-85
2020/12/03 13:52:04;;;;;;;14.47;13.40;;;4.90;99.90;;;;;;4895224;29;20876;-85
2020/12/03 13:54:30;;;;;;;14.37;13.03;;;4.90;99.90;;;;;;4895765;29;20869;-85
2020/12/03 13:56:57;;;;;;;13.60;12.63;;;4.90;99.90;;;;;;4896572;29;20447;-85
2020/12/03 13:59:23;;;;;;;16.13;14.77;;;4.90;99.90;;;;;;4895855;29;20487;-84
2020/12/03 14:01:49;;;;;;;12.57;11.53;;;4.90;99.90;;;;;;4895467;29;20447;-85
2020/12/03 14:04:16;;;;;;;14.57;13.47;;;4.80;99.90;;;;;;4895807;29;20476;-86
2020/12/03 14:06:42;;;;;;;13.47;12.57;;;4.90;99.90;;;;;;4895503;29;20490;-85
2020/12/03 14:09:10;;;;;;;15.87;14.27;;;4.90;99.90;;;;;;4896754;29;20950;-84
2020/12/03 14:11:36;;;;;;;15.93;14.60;;;4.90;99.90;;;;;;4895714;29;20458;-85
2020/12/03 14:14:02;;;;;;;14.87;13.67;;;4.90;99.90;;;;;;4895261;29;20447;-84
2020/12/03 14:16:28;;;;;;;15.10;14.00;;;4.90;99.90;;;;;;4895587;29;20458;-86
2020/12/03 14:18:54;;;;;;;14.37;13.23;;;4.90;99.90;;;;;;4895489;29;20487;-85
2020/12/03 14:21:20;;;;;;;15.03;13.87;;;4.90;99.90;;;;;;4895673;29;20455;-84
2020/12/03 14:23:47;;;;;;;14.00;12.97;;;4.90;99.90;;;;;;4895241;29;20451;-85
2020/12/03 14:26:14;;;;;;;14.50;13.40;;;4.80;99.90;;;;;;4895319;29;20452;-84
2020/12/03 14:28:40;;;;;;;15.13;14.03;;;4.80;99.90;;;;;;4895051;29;20470;-83
2020/12/03 14:31:07;;;;;;;20.83;12.53;;;4.80;99.90;;;;;;4895356;29;20447;-84
2020/12/03 14:33:33;;;;;;;13.77;12.80;;;4.80;99.90;;;;;;4895368;29;20455;-84
2020/12/03 14:35:59;;;;;;;13.60;12.43;;;4.80;99.90;;;;;;4895241;29;20451;-85
2020/12/03 14:38:25;;;;;;;16.50;15.10;;;4.80;99.90;;;;;;4895158;29;20491;-83
2020/12/03 14:40:52;;;;;;;16.70;15.40;;;4.80;99.90;;;;;;4895713;29;20451;-83
2020/12/03 14:43:19;;;;;;;16.57;15.20;;;4.80;99.90;;;;;;4895983;29;20439;-87
2020/12/03 14:45:45;;;;;;;15.23;14.00;;;4.80;99.90;;;;;;4896557;29;20448;-88
2020/12/03 14:48:11;;;;;;;15.50;14.07;;;4.90;99.90;;;;;;4896762;29;20454;-87
2020/12/03 14:50:39;;;;;;;15.40;13.97;;;4.90;99.90;;;;;;4896696;29;20851;-88
2020/12/03 14:53:05;;;;;;;17.37;15.87;;;4.90;99.90;;;;;;4896359;29;20469;-86
2020/12/03 14:55:36;;;;;;;17.87;16.20;;;5.00;99.90;;;;;;4895964;29;20443;-87
2020/12/03 14:58:03;;;;;;;16.93;15.33;;;4.90;99.90;;;;;;4895909;29;20574;-86
2020/12/03 15:00:30;;;;;;;16.20;14.60;;;4.90;99.90;;;;;;4895742;29;20447;-86
2020/12/03 15:02:56;;;;;;;18.93;16.97;;;4.90;99.90;;;;;;4898232;29;20455;-88
2020/12/03 15:05:22;;;;;;;17.17;15.50;;;4.80;99.90;;;;;;4899648;29;20810;-87
2020/12/03 15:07:51;;;;;;;18.03;16.30;;;4.80;99.90;;;;;;4899751;29;20443;-87
2020/12/03 15:10:21;;;;;;;17.10;15.60;;;4.80;99.90;;;;;;4899269;29;20535;-86
2020/12/03 15:12:48;;;;;;;17.63;16.03;;;4.80;99.90;;;;;;4913887;29;20489;-85
2020/12/03 15:15:14;;;;;;;17.67;16.07;;;4.80;99.90;;;;;;4917492;29;20799;-86
2020/12/03 15:17:41;;;;;;;17.10;15.33;;;4.80;99.90;;;;;;4917112;29;20844;-86
2020/12/03 15:20:08;;;;;;;18.23;15.57;;;4.70;99.90;;;;;;4917437;29;20450;-85
2020/12/03 15:22:34;;;;;;;21.03;17.60;;;4.60;99.90;;;;;;4917563;29;20453;-85
2020/12/03 15:25:01;;;;;;;17.60;16.00;;;4.50;99.90;;;;;;4917256;29;20450;-87
2020/12/03 15:27:27;;;;;;;17.80;16.33;;;4.40;99.90;;;;;;4917527;29;20455;-86
2020/12/03 15:29:53;;;;;;;17.97;16.17;;;4.30;99.90;;;;;;4916720;29;20470;-87
2020/12/03 15:32:21;;;;;;;16.17;14.67;;;4.10;99.90;;;;;;4917692;29;20454;-88
2020/12/03 15:34:48;;;;;;;17.63;16.03;;;4.00;99.90;;;;;;4917545;29;20482;-87
2020/12/03 15:37:14;;;;;;;19.17;17.37;;;4.10;99.90;;;;;;4918055;29;20447;-88
2020/12/03 15:39:40;;;;;;;15.37;13.97;;;4.00;99.90;;;;;;4917443;29;20490;-87
2020/12/03 15:42:11;;;;;;;17.10;14.20;;;4.10;99.90;;;;;;4917443;29;20458;-88
2020/12/03 15:44:41;;;;;;;15.00;13.70;;;4.10;99.90;;;;;;4917945;29;20451;-89
2020/12/03 15:47:08;;;;;;;16.23;13.90;;;4.10;99.90;;;;;;4917992;29;20960;-89
2020/12/03 15:49:35;;;;;;;16.47;14.93;;;4.10;99.90;;;;;;4918403;29;20929;-88
2020/12/03 15:52:02;;;;;;;16.57;14.50;;;4.00;99.90;;;;;;4917183;29;20446;-87
2020/12/03 15:54:29;;;;;;;17.70;16.00;;;4.10;99.90;;;;;;4917603;29;20451;-86
2020/12/03 15:56:56;;;;;;;16.20;14.80;;;4.00;99.90;;;;;;4922132;29;20457;-89
2020/12/03 15:59:26;;;;;;;18.53;16.73;;;4.10;99.90;;;;;;4930384;29;20494;-87
2020/12/03 16:01:58;;;;;;;15.40;14.00;;;4.00;99.90;;;;;;4928217;29;20541;-87
2020/12/03 16:04:25;;;;;;;15.70;14.30;;;4.00;99.90;;;;;;4929224;29;20478;-88
2020/12/03 16:06:52;;;;;;;19.60;15.40;;;4.00;99.90;;;;;;4917756;29;20482;-88
2020/12/03 16:09:19;;;;;;;21.70;16.23;;;3.90;99.90;;;;;;4917572;29;20450;-87
2020/12/03 16:11:45;;;;;;;18.13;16.23;;;3.90;99.90;;;;;;4916933;29;20828;-88
2020/12/03 16:14:12;;;;;;;19.53;17.10;;;3.90;99.90;;;;;;4915626;29;20469;-87
2020/12/03 16:16:38;;;;;;;18.87;16.87;;;3.80;99.90;;;;;;4916593;29;20937;-88
2020/12/03 16:19:04;;;;;;;19.23;17.53;;;3.80;99.90;;;;;;4916722;29;20510;-88
2020/12/03 16:21:30;;;;;;;20.93;18.17;;;3.70;99.90;;;;;;4916563;29;20937;-88
2020/12/03 16:23:57;;;;;;;19.43;17.40;;;3.70;99.90;;;;;;4916185;29;20888;-88
2020/12/03 16:26:24;;;;;;;19.40;17.53;;;3.70;99.90;;;;;;4916649;29;20458;-88
2020/12/03 16:28:50;;;;;;;19.80;17.83;;;3.60;99.90;;;;;;4916416;29;20446;-88
2020/12/03 16:31:18;;;;;;;19.53;17.77;;;3.60;99.90;;;;;;4916304;29;20450;-89
2020/12/03 16:33:45;;;;;;;17.10;15.43;;;3.60;99.90;;;;;;4916078;29;20502;-87
2020/12/03 16:36:11;;;;;;;18.00;16.40;;;3.60;99.90;;;;;;4916863;29;20454;-88
2020/12/03 16:38:37;;;;;;;17.77;16.07;;;3.60;99.90;;;;;;4916310;29;20493;-87
2020/12/03 16:41:06;;;;;;;18.47;16.73;;;3.60;99.90;;;;;;4916124;29;20465;-90
2020/12/03 16:43:33;;;;;;;18.63;17.10;;;3.50;99.90;;;;;;4916053;29;20880;-90
2020/12/03 16:45:59;;;;;;;26.17;17.83;;;3.50;99.90;;;;;;4916854;29;20450;-91
2020/12/03 16:48:26;;;;;;;20.83;18.93;;;3.50;99.90;;;;;;4920766;29;20477;-88
2020/12/03 16:50:52;;;;;;;19.37;17.70;;;3.40;99.90;;;;;;4926713;29;20812;-89
2020/12/03 16:53:18;;;;;;;19.00;17.10;;;3.40;99.90;;;;;;4924765;29;20561;-88
2020/12/03 16:55:44;;;;;;;19.20;17.50;;;3.40;99.90;;;;;;4935359;29;20850;-89
2020/12/03 16:58:10;;;;;;;17.90;16.33;;;3.40;99.90;;;;;;4923307;29;20494;-90
2020/12/03 17:00:37;;;;;;;17.63;15.93;;;3.40;99.90;;;;;;4917095;29;20454;-88
2020/12/03 17:03:04;;;;;;;32.37;18.00;;;3.40;99.90;;;;;;4916544;29;20451;-88
2020/12/03 17:05:30;;;;;;;21.13;18.80;;;3.50;99.90;;;;;;4920092;29;20482;-89
2020/12/03 17:07:56;;;;;;;17.97;16.30;;;3.40;99.90;;;;;;4935385;29;20445;-89